sensor_id;sensor_type;location;lat;lon;timestamp;P1;durP1;ratioP1;P2;durP2;ratioP2
25649;SDS011;13505;45.196;5.696;2023-02-15T05:00:46;15.23;;;6.70;;
25649;SDS011;13505;45.196;5.696;2023-02-15T05:05:36;11.93;;;6.45;;
25649;SDS011;13505;45.196;5.696;2023-02-15T05:10:27;15.80;;;7.13;;
25649;SDS011;13505;45.196;5.696;2023-02-15T05:15:17;16.48;;;7.82;;
25649;SDS011;13505;45.196;5.696;2023-02-15T05:20:07;19.77;;;8.68;;
25649;SDS011;13505;45.196;5.696;2023-02-15T05:24:58;25.15;;;11.43;;
25649;SDS011;13505;45.196;5.696;2023-02-15T05:30:07;21.55;;;11.55;;
25649;SDS011;13505;45.196;5.696;2023-02-15T05:35:01;21.10;;;11.30;;
25649;SDS011;13505;45.196;5.696;2023-02-15T05:39:51;20.67;;;9.10;;
25649;SDS011;13505;45.196;5.696;2023-02-15T05:44:42;17.38;;;8.50;;
25649;SDS011;13505;45.196;5.696;2023-02-15T05:49:32;18.17;;;8.23;;
25649;SDS011;13505;45.196;5.696;2023-02-15T05:54:23;20.15;;;9.40;;
25649;SDS011;13505;45.196;5.696;2023-02-15T05:59:13;24.35;;;10.55;;
25649;SDS011;13505;45.196;5.696;2023-02-15T06:04:03;23.40;;;10.75;;
25649;SDS011;13505;45.196;5.696;2023-02-15T06:08:54;23.30;;;11.02;;
25649;SDS011;13505;45.196;5.696;2023-02-15T06:13:44;26.13;;;11.38;;
25649;SDS011;13505;45.196;5.696;2023-02-15T06:18:34;24.08;;;10.70;;
25649;SDS011;13505;45.196;5.696;2023-02-15T06:23:25;22.85;;;10.48;;
25649;SDS011;13505;45.196;5.696;2023-02-15T06:28:15;26.52;;;11.95;;
25649;SDS011;13505;45.196;5.696;2023-02-15T06:33:06;24.60;;;12.27;;
25649;SDS011;13505;45.196;5.696;2023-02-15T06:37:56;24.08;;;11.82;;
25649;SDS011;13505;45.196;5.696;2023-02-15T06:42:46;32.85;;;13.80;;
25649;SDS011;13505;45.196;5.696;2023-02-15T06:47:37;27.95;;;13.68;;
25649;SDS011;13505;45.196;5.696;2023-02-15T06:52:27;25.30;;;12.82;;
25649;SDS011;13505;45.196;5.696;2023-02-15T06:57:19;22.02;;;11.95;;
25649;SDS011;13505;45.196;5.696;2023-02-15T07:02:13;26.75;;;12.80;;
25649;SDS011;13505;45.196;5.696;2023-02-15T07:07:04;31.63;;;13.13;;
25649;SDS011;13505;45.196;5.696;2023-02-15T07:11:59;22.55;;;11.93;;
25649;SDS011;13505;45.196;5.696;2023-02-15T07:17:08;25.13;;;11.48;;
25649;SDS011;13505;45.196;5.696;2023-02-15T07:21:58;24.10;;;12.50;;
25649;SDS011;13505;45.196;5.696;2023-02-15T07:26:48;26.67;;;13.23;;
25649;SDS011;13505;45.196;5.696;2023-02-15T07:31:39;24.88;;;12.10;;
25649;SDS011;13505;45.196;5.696;2023-02-15T07:36:29;27.33;;;12.93;;
25649;SDS011;13505;45.196;5.696;2023-02-15T07:41:20;27.15;;;13.77;;
25649;SDS011;13505;45.196;5.696;2023-02-15T07:46:12;27.25;;;14.70;;
25649;SDS011;13505;45.196;5.696;2023-02-15T07:51:06;31.08;;;15.57;;
25649;SDS011;13505;45.196;5.696;2023-02-15T07:56:05;27.20;;;12.90;;
25649;SDS011;13505;45.196;5.696;2023-02-15T08:01:03;34.30;;;13.98;;
25649;SDS011;13505;45.196;5.696;2023-02-15T08:05:55;30.05;;;13.98;;
25649;SDS011;13505;45.196;5.696;2023-02-15T08:10:48;27.48;;;13.32;;
25649;SDS011;13505;45.196;5.696;2023-02-15T08:15:56;29.20;;;13.90;;
25649;SDS011;13505;45.196;5.696;2023-02-15T08:20:50;28.73;;;13.60;;
25649;SDS011;13505;45.196;5.696;2023-02-15T08:25:40;42.83;;;20.23;;
25649;SDS011;13505;45.196;5.696;2023-02-15T08:30:31;29.40;;;14.05;;
25649;SDS011;13505;45.196;5.696;2023-02-15T08:35:21;26.02;;;13.68;;
25649;SDS011;13505;45.196;5.696;2023-02-15T08:40:11;27.08;;;13.05;;
25649;SDS011;13505;45.196;5.696;2023-02-15T08:45:03;27.58;;;12.98;;
25649;SDS011;13505;45.196;5.696;2023-02-15T08:49:54;40.30;;;20.10;;
25649;SDS011;13505;45.196;5.696;2023-02-15T08:54:45;32.10;;;13.02;;
25649;SDS011;13505;45.196;5.696;2023-02-15T08:59:36;24.98;;;12.43;;
25649;SDS011;13505;45.196;5.696;2023-02-15T09:04:26;20.58;;;11.32;;
25649;SDS011;13505;45.196;5.696;2023-02-15T09:09:17;22.77;;;11.52;;
25649;SDS011;13505;45.196;5.696;2023-02-15T09:14:10;31.60;;;15.77;;
25649;SDS011;13505;45.196;5.696;2023-02-15T09:19:03;13.68;;;7.53;;
25649;SDS011;13505;45.196;5.696;2023-02-15T09:23:56;13.93;;;7.32;;
25649;SDS011;13505;45.196;5.696;2023-02-15T09:28:53;14.10;;;6.50;;
25649;SDS011;13505;45.196;5.696;2023-02-15T09:33:46;13.68;;;7.22;;
25649;SDS011;13505;45.196;5.696;2023-02-15T09:38:37;27.88;;;10.32;;
25649;SDS011;13505;45.196;5.696;2023-02-15T09:43:36;14.88;;;8.57;;
25649;SDS011;13505;45.196;5.696;2023-02-15T09:48:40;26.00;;;11.20;;
25649;SDS011;13505;45.196;5.696;2023-02-15T10:14:08;26.23;;;13.27;;
25649;SDS011;13505;45.196;5.696;2023-02-15T10:19:14;27.63;;;12.77;;
25649;SDS011;13505;45.196;5.696;2023-02-15T10:24:14;26.50;;;12.82;;
25649;SDS011;13505;45.196;5.696;2023-02-15T10:29:35;25.58;;;12.93;;
25649;SDS011;13505;45.196;5.696;2023-02-15T10:39:29;15.00;;;8.38;;
25649;SDS011;13505;45.196;5.696;2023-02-15T10:44:50;15.75;;;9.05;;
25649;SDS011;13505;45.196;5.696;2023-02-15T11:11:01;22.30;;;11.70;;
25649;SDS011;13505;45.196;5.696;2023-02-15T11:15:57;27.38;;;11.77;;
25649;SDS011;13505;45.196;5.696;2023-02-15T11:21:12;26.13;;;11.23;;
25649;SDS011;13505;45.196;5.696;2023-02-15T11:26:19;22.35;;;13.23;;
25649;SDS011;13505;45.196;5.696;2023-02-15T11:31:18;26.52;;;13.30;;
25649;SDS011;13505;45.196;5.696;2023-02-15T11:36:54;24.83;;;13.40;;
25649;SDS011;13505;45.196;5.696;2023-02-15T11:41:29;30.58;;;16.05;;
25649;SDS011;13505;45.196;5.696;2023-02-15T11:46:24;28.83;;;13.65;;
25649;SDS011;13505;45.196;5.696;2023-02-15T11:51:17;22.35;;;12.60;;
25649;SDS011;13505;45.196;5.696;2023-02-15T11:56:17;25.58;;;12.93;;
25649;SDS011;13505;45.196;5.696;2023-02-15T12:06:26;26.83;;;13.88;;
25649;SDS011;13505;45.196;5.696;2023-02-15T12:11:20;26.30;;;14.13;;
25649;SDS011;13505;45.196;5.696;2023-02-15T12:16:17;31.27;;;14.38;;
25649;SDS011;13505;45.196;5.696;2023-02-15T12:21:09;31.95;;;15.05;;
25649;SDS011;13505;45.196;5.696;2023-02-15T12:26:04;26.67;;;14.68;;
25649;SDS011;13505;45.196;5.696;2023-02-15T12:30:55;26.42;;;14.60;;
25649;SDS011;13505;45.196;5.696;2023-02-15T12:35:47;32.42;;;16.83;;
25649;SDS011;13505;45.196;5.696;2023-02-15T12:40:39;36.75;;;18.02;;
25649;SDS011;13505;45.196;5.696;2023-02-15T12:45:30;29.05;;;16.30;;
25649;SDS011;13505;45.196;5.696;2023-02-15T12:50:23;29.85;;;14.68;;
25649;SDS011;13505;45.196;5.696;2023-02-15T12:55:26;24.63;;;12.95;;
25649;SDS011;13505;45.196;5.696;2023-02-15T13:20:48;26.02;;;14.02;;
25649;SDS011;13505;45.196;5.696;2023-02-15T13:25:44;26.70;;;14.13;;
25649;SDS011;13505;45.196;5.696;2023-02-15T13:30:42;26.50;;;14.70;;
25649;SDS011;13505;45.196;5.696;2023-02-15T13:35:45;28.92;;;14.18;;
25649;SDS011;13505;45.196;5.696;2023-02-15T13:40:45;22.70;;;13.45;;
25649;SDS011;13505;45.196;5.696;2023-02-15T13:55:55;22.87;;;13.77;;
25649;SDS011;13505;45.196;5.696;2023-02-15T14:11:28;22.40;;;10.93;;
25649;SDS011;13505;45.196;5.696;2023-02-15T14:16:49;19.80;;;11.15;;
25649;SDS011;13505;45.196;5.696;2023-02-15T14:21:59;21.85;;;11.00;;
25649;SDS011;13505;45.196;5.696;2023-02-15T14:31:55;17.67;;;10.90;;
25649;SDS011;13505;45.196;5.696;2023-02-15T14:36:50;21.35;;;10.80;;
25649;SDS011;13505;45.196;5.696;2023-02-15T14:41:47;17.25;;;9.63;;
25649;SDS011;13505;45.196;5.696;2023-02-15T14:46:49;14.52;;;8.70;;
25649;SDS011;13505;45.196;5.696;2023-02-15T14:56:35;20.05;;;8.98;;
25649;SDS011;13505;45.196;5.696;2023-02-15T15:01:31;18.15;;;9.65;;
25649;SDS011;13505;45.196;5.696;2023-02-15T15:06:28;20.88;;;9.90;;
25649;SDS011;13505;45.196;5.696;2023-02-15T15:26:42;18.13;;;10.73;;
25649;SDS011;13505;45.196;5.696;2023-02-15T15:31:38;17.00;;;8.85;;
25649;SDS011;13505;45.196;5.696;2023-02-15T15:52:23;15.85;;;9.13;;
25649;SDS011;13505;45.196;5.696;2023-02-15T15:57:22;18.33;;;9.40;;
25649;SDS011;13505;45.196;5.696;2023-02-15T16:02:18;15.73;;;9.30;;
25649;SDS011;13505;45.196;5.696;2023-02-15T16:12:14;16.67;;;9.55;;
25649;SDS011;13505;45.196;5.696;2023-02-15T16:17:12;20.63;;;10.75;;
25649;SDS011;13505;45.196;5.696;2023-02-15T16:22:16;17.20;;;9.88;;
25649;SDS011;13505;45.196;5.696;2023-02-15T16:27:14;16.20;;;9.32;;
25649;SDS011;13505;45.196;5.696;2023-02-15T16:32:26;19.33;;;10.40;;
25649;SDS011;13505;45.196;5.696;2023-02-15T16:37:19;17.23;;;9.88;;
25649;SDS011;13505;45.196;5.696;2023-02-15T16:42:13;15.55;;;9.20;;
25649;SDS011;13505;45.196;5.696;2023-02-15T16:47:06;18.00;;;10.38;;
25649;SDS011;13505;45.196;5.696;2023-02-15T16:52:23;17.52;;;10.15;;
25649;SDS011;13505;45.196;5.696;2023-02-15T16:57:20;20.00;;;10.38;;
25649;SDS011;13505;45.196;5.696;2023-02-15T17:02:15;16.13;;;9.73;;
25649;SDS011;13505;45.196;5.696;2023-02-15T17:07:18;26.13;;;11.07;;
25649;SDS011;13505;45.196;5.696;2023-02-15T17:12:10;16.42;;;10.35;;
25649;SDS011;13505;45.196;5.696;2023-02-15T17:17:01;16.25;;;10.50;;
25649;SDS011;13505;45.196;5.696;2023-02-15T17:21:57;20.35;;;11.35;;
25649;SDS011;13505;45.196;5.696;2023-02-15T17:26:54;23.55;;;11.40;;
25649;SDS011;13505;45.196;5.696;2023-02-15T17:31:50;19.10;;;11.35;;
25649;SDS011;13505;45.196;5.696;2023-02-15T17:36:56;22.25;;;13.35;;
25649;SDS011;13505;45.196;5.696;2023-02-15T17:41:48;22.98;;;12.55;;
25649;SDS011;13505;45.196;5.696;2023-02-15T17:46:42;15.70;;;10.02;;
25649;SDS011;13505;45.196;5.696;2023-02-15T17:51:33;17.63;;;9.55;;
25649;SDS011;13505;45.196;5.696;2023-02-15T17:56:25;19.27;;;9.55;;
25649;SDS011;13505;45.196;5.696;2023-02-15T18:01:16;16.97;;;8.63;;
25649;SDS011;13505;45.196;5.696;2023-02-15T18:06:27;15.20;;;9.75;;
25649;SDS011;13505;45.196;5.696;2023-02-15T18:11:36;16.25;;;9.60;;
25649;SDS011;13505;45.196;5.696;2023-02-15T18:16:32;16.63;;;10.32;;
25649;SDS011;13505;45.196;5.696;2023-02-15T18:21:24;12.93;;;7.28;;
25649;SDS011;13505;45.196;5.696;2023-02-15T18:26:19;19.75;;;10.48;;
25649;SDS011;13505;45.196;5.696;2023-02-15T18:31:11;17.75;;;11.38;;
25649;SDS011;13505;45.196;5.696;2023-02-15T18:36:02;18.48;;;11.88;;
25649;SDS011;13505;45.196;5.696;2023-02-15T18:40:55;22.75;;;12.10;;
25649;SDS011;13505;45.196;5.696;2023-02-15T18:45:46;19.10;;;12.15;;
25649;SDS011;13505;45.196;5.696;2023-02-15T18:50:36;24.30;;;12.68;;
25649;SDS011;13505;45.196;5.696;2023-02-15T18:55:27;24.42;;;13.88;;
25649;SDS011;13505;45.196;5.696;2023-02-15T19:00:19;26.25;;;14.13;;
25649;SDS011;13505;45.196;5.696;2023-02-15T19:05:10;25.38;;;15.27;;
25649;SDS011;13505;45.196;5.696;2023-02-15T19:10:01;29.58;;;16.08;;
25649;SDS011;13505;45.196;5.696;2023-02-15T19:14:57;24.42;;;15.02;;
25649;SDS011;13505;45.196;5.696;2023-02-15T19:19:48;30.30;;;15.55;;
25649;SDS011;13505;45.196;5.696;2023-02-15T19:24:41;26.38;;;14.00;;
25649;SDS011;13505;45.196;5.696;2023-02-15T19:29:33;26.92;;;14.55;;
25649;SDS011;13505;45.196;5.696;2023-02-15T19:34:23;28.95;;;13.23;;
25649;SDS011;13505;45.196;5.696;2023-02-15T19:44:25;19.17;;;11.60;;
25649;SDS011;13505;45.196;5.696;2023-02-15T19:49:15;26.17;;;12.63;;
25649;SDS011;13505;45.196;5.696;2023-02-15T19:59:23;24.77;;;12.63;;
25649;SDS011;13505;45.196;5.696;2023-02-15T20:04:19;21.42;;;11.80;;
25649;SDS011;13505;45.196;5.696;2023-02-15T20:09:19;24.40;;;11.60;;
25649;SDS011;13505;45.196;5.696;2023-02-15T20:14:13;23.45;;;11.20;;
25649;SDS011;13505;45.196;5.696;2023-02-15T20:19:03;22.13;;;12.52;;
25649;SDS011;13505;45.196;5.696;2023-02-15T20:23:54;19.27;;;10.82;;
25649;SDS011;13505;45.196;5.696;2023-02-15T20:28:44;21.55;;;11.57;;
25649;SDS011;13505;45.196;5.696;2023-02-15T20:33:35;21.92;;;11.60;;
25649;SDS011;13505;45.196;5.696;2023-02-15T20:38:26;28.25;;;13.02;;
25649;SDS011;13505;45.196;5.696;2023-02-15T20:43:18;23.38;;;11.70;;
25649;SDS011;13505;45.196;5.696;2023-02-15T20:48:09;22.67;;;12.30;;
25649;SDS011;13505;45.196;5.696;2023-02-15T20:53:00;19.40;;;11.00;;
25649;SDS011;13505;45.196;5.696;2023-02-15T20:57:54;20.08;;;12.38;;
25649;SDS011;13505;45.196;5.696;2023-02-15T21:02:45;21.10;;;11.65;;
25649;SDS011;13505;45.196;5.696;2023-02-15T21:07:37;21.13;;;12.25;;
25649;SDS011;13505;45.196;5.696;2023-02-15T21:12:27;19.70;;;11.70;;
25649;SDS011;13505;45.196;5.696;2023-02-15T21:17:18;25.77;;;12.43;;
25649;SDS011;13505;45.196;5.696;2023-02-15T21:22:12;25.02;;;13.25;;
25649;SDS011;13505;45.196;5.696;2023-02-15T21:27:05;21.88;;;11.02;;
25649;SDS011;13505;45.196;5.696;2023-02-15T21:31:58;23.00;;;11.20;;
25649;SDS011;13505;45.196;5.696;2023-02-15T21:36:50;19.13;;;10.60;;
25649;SDS011;13505;45.196;5.696;2023-02-15T21:41:40;19.00;;;9.35;;
25649;SDS011;13505;45.196;5.696;2023-02-15T21:46:52;21.08;;;9.55;;
25649;SDS011;13505;45.196;5.696;2023-02-15T21:52:01;18.02;;;10.20;;
25649;SDS011;13505;45.196;5.696;2023-02-15T21:57:00;16.90;;;10.18;;
25649;SDS011;13505;45.196;5.696;2023-02-15T22:01:52;21.27;;;10.95;;
25649;SDS011;13505;45.196;5.696;2023-02-15T22:06:42;19.90;;;10.85;;
25649;SDS011;13505;45.196;5.696;2023-02-15T22:11:33;17.08;;;9.90;;
25649;SDS011;13505;45.196;5.696;2023-02-15T22:16:23;17.33;;;9.57;;
25649;SDS011;13505;45.196;5.696;2023-02-15T22:21:14;17.63;;;10.88;;
25649;SDS011;13505;45.196;5.696;2023-02-15T22:26:19;20.25;;;10.40;;
25649;SDS011;13505;45.196;5.696;2023-02-15T22:31:20;19.80;;;10.68;;
25649;SDS011;13505;45.196;5.696;2023-02-15T22:41:13;17.80;;;9.38;;
25649;SDS011;13505;45.196;5.696;2023-02-15T22:46:06;21.90;;;9.55;;
25649;SDS011;13505;45.196;5.696;2023-02-15T22:50:59;16.40;;;8.88;;
25649;SDS011;13505;45.196;5.696;2023-02-15T22:55:50;14.23;;;8.45;;
